Time;durP1;ratioP1;P1;durP2;ratioP2;P2;SDS_P1;SDS_P2;PMS_P1;PMS_P2;Temp;Humidity;BMP_temperature;BMP_pressure;BME280_temperature;BME280_humidity;BME280_pressure;Samples;Min_cycle;Max_cycle;Signal;HPM_P1;HPM_P2
2022/10/06 00:00:47;;;;;;;3.80;0.90;;;12.40;99.90;;;;;;5074019;28;20650;-62
2022/10/06 00:03:13;;;;;;;7.82;1.13;;;12.40;99.90;;;;;;5084645;28;20040;-61
2022/10/06 00:05:40;;;;;;;5.13;1.10;;;12.40;99.90;;;;;;5085212;28;20502;-62
2022/10/06 00:08:05;;;;;;;6.35;1.20;;;12.30;99.90;;;;;;5087785;28;20032;-61
2022/10/06 00:10:31;;;;;;;6.85;1.15;;;12.30;99.90;;;;;;5086658;28;20135;-62
2022/10/06 00:12:57;;;;;;;5.30;0.93;;;12.30;99.90;;;;;;5082835;28;20032;-62
2022/10/06 00:15:27;;;;;;;5.40;1.02;;;12.20;99.90;;;;;;5068780;28;20218;-62
2022/10/06 00:17:52;;;;;;;5.60;1.00;;;12.20;99.90;;;;;;5085587;28;20456;-62
2022/10/06 00:20:18;;;;;;;6.50;1.55;;;12.20;99.90;;;;;;5088160;28;20035;-62
2022/10/06 00:22:46;;;;;;;4.95;1.00;;;12.10;99.90;;;;;;5084370;28;20174;-61
2022/10/06 00:25:14;;;;;;;8.32;1.25;;;12.10;99.90;;;;;;5068972;28;20032;-62
2022/10/06 00:27:43;;;;;;;4.28;0.93;;;12.10;99.90;;;;;;5060384;28;20447;-62
2022/10/06 00:30:13;;;;;;;5.65;1.10;;;12.10;99.90;;;;;;5084368;28;20440;-62
2022/10/06 00:32:39;;;;;;;6.95;1.13;;;12.10;99.90;;;;;;5077013;28;20059;-62
2022/10/06 00:35:06;;;;;;;4.45;1.00;;;12.00;99.90;;;;;;5082355;28;20410;-62
2022/10/06 00:37:37;;;;;;;6.68;1.35;;;12.10;99.90;;;;;;5080275;28;20084;-61
2022/10/06 00:40:07;;;;;;;;;;;12.00;99.90;;;;;;5082514;28;20126;-61
2022/10/06 00:42:33;;;;;;;4.65;1.15;;;12.00;99.90;;;;;;5082153;28;20476;-61
2022/10/06 00:45:02;;;;;;;4.85;1.23;;;12.00;99.90;;;;;;5079586;28;20159;-61
2022/10/06 00:47:30;;;;;;;5.40;1.00;;;12.00;99.90;;;;;;5085520;28;20038;-62
2022/10/06 00:49:59;;;;;;;6.55;1.58;;;12.00;99.90;;;;;;5084305;28;20044;-62
2022/10/06 00:52:27;;;;;;;4.60;1.05;;;12.00;99.90;;;;;;5079860;28;20063;-62
2022/10/06 00:54:53;;;;;;;6.47;1.38;;;12.00;99.90;;;;;;5065458;28;20083;-62
2022/10/06 00:57:19;;;;;;;6.10;1.38;;;12.00;99.90;;;;;;5082030;28;20083;-61
2022/10/06 00:59:45;;;;;;;5.50;1.10;;;12.00;99.90;;;;;;5082296;28;20146;-62
2022/10/06 01:02:24;;;;;;;6.25;1.25;;;11.90;99.90;;;;;;5059836;28;20395;-61
2022/10/06 01:04:55;;;;;;;6.95;1.30;;;11.90;99.90;;;;;;5077689;28;20040;-63
2022/10/06 01:07:25;;;;;;;10.50;2.28;;;11.90;99.90;;;;;;5081050;28;20040;-61
2022/10/06 01:09:51;;;;;;;5.05;1.20;;;11.90;99.90;;;;;;5082195;28;20395;-61
2022/10/06 01:12:17;;;;;;;8.48;1.30;;;11.90;99.90;;;;;;5077359;28;20372;-61
2022/10/06 01:14:43;;;;;;;6.03;1.05;;;11.90;99.90;;;;;;5081224;28;20043;-62
2022/10/06 01:17:15;;;;;;;3.22;1.05;;;11.80;99.90;;;;;;5083290;28;20036;-61
2022/10/06 01:19:51;;;;;;;6.93;1.60;;;11.80;99.90;;;;;;5085078;28;20070;-61
2022/10/06 01:22:29;;;;;;;9.48;1.33;;;11.90;99.90;;;;;;5078784;28;20040;-61
2022/10/06 01:24:55;;;;;;;7.15;1.15;;;11.80;99.90;;;;;;5074388;28;20068;-62
2022/10/06 01:27:22;;;;;;;6.60;1.45;;;11.80;99.90;;;;;;5062268;28;20055;-62
2022/10/06 01:29:54;;;;;;;8.38;1.20;;;11.80;99.90;;;;;;5082538;28;20040;-62
2022/10/06 01:32:21;;;;;;;6.57;1.35;;;11.70;99.90;;;;;;5075653;28;20032;-61
2022/10/06 01:34:46;;;;;;;5.18;1.20;;;11.70;99.90;;;;;;5083776;28;20036;-61
2022/10/06 01:37:12;;;;;;;9.52;1.38;;;11.70;99.90;;;;;;5064575;28;20448;-61
2022/10/06 01:39:38;;;;;;;7.05;1.70;;;11.60;99.90;;;;;;5090556;28;20419;-62
2022/10/06 01:42:03;;;;;;;5.70;1.50;;;11.60;99.90;;;;;;5084868;28;20250;-62
2022/10/06 01:44:29;;;;;;;5.80;1.38;;;11.60;99.90;;;;;;5068541;28;20059;-61
2022/10/06 01:46:54;;;;;;;7.38;1.50;;;11.50;99.90;;;;;;5086670;28;20044;-62
2022/10/06 01:49:20;;;;;;;9.95;1.45;;;11.50;99.90;;;;;;5090321;28;20040;-62
2022/10/06 01:51:46;;;;;;;7.47;1.23;;;11.40;99.90;;;;;;5088636;28;20460;-62
2022/10/06 01:54:12;;;;;;;8.32;1.33;;;11.40;99.90;;;;;;5086914;28;20039;-62
2022/10/06 01:56:37;;;;;;;10.95;1.42;;;11.40;99.90;;;;;;5085145;28;20054;-62
2022/10/06 01:59:03;;;;;;;5.63;1.33;;;11.30;99.90;;;;;;5086938;28;20043;-61
2022/10/06 02:01:28;;;;;;;7.18;1.30;;;11.30;99.90;;;;;;5068042;28;20060;-62
2022/10/06 02:03:54;;;;;;;6.80;2.00;;;11.30;99.90;;;;;;5083723;28;20044;-61
2022/10/06 02:06:19;;;;;;;10.50;1.40;;;11.30;99.90;;;;;;5082049;28;20036;-62
2022/10/06 02:08:45;;;;;;;8.05;1.45;;;11.30;99.90;;;;;;5078785;28;20032;-62
2022/10/06 02:11:11;;;;;;;5.97;1.40;;;11.30;99.90;;;;;;5085449;28;20044;-61
2022/10/06 02:13:37;;;;;;;11.25;1.65;;;11.30;99.90;;;;;;5080462;28;20035;-62
2022/10/06 02:16:05;;;;;;;10.50;1.50;;;11.20;99.90;;;;;;5086236;28;20110;-62
2022/10/06 02:18:32;;;;;;;7.15;1.70;;;11.10;99.90;;;;;;5067448;28;20040;-62
2022/10/06 02:20:58;;;;;;;9.65;1.33;;;11.10;99.90;;;;;;5088849;28;20040;-62
2022/10/06 02:23:24;;;;;;;10.02;1.48;;;11.10;99.90;;;;;;5081505;28;20063;-62
2022/10/06 02:26:00;;;;;;;7.22;1.40;;;11.00;99.90;;;;;;5070530;28;20593;-62
2022/10/06 02:28:26;;;;;;;10.85;1.77;;;11.00;99.90;;;;;;5081605;28;20113;-62
2022/10/06 02:30:52;;;;;;;8.38;1.52;;;11.00;99.90;;;;;;5086098;28;20028;-62
2022/10/06 02:33:18;;;;;;;12.25;1.52;;;11.00;99.90;;;;;;5086309;28;20028;-63
2022/10/06 02:35:44;;;;;;;8.80;1.67;;;11.00;99.90;;;;;;5081133;28;20097;-62
2022/10/06 02:38:09;;;;;;;9.75;1.60;;;10.90;99.90;;;;;;5082204;28;20052;-62
2022/10/06 02:40:35;;;;;;;7.68;1.50;;;10.90;99.90;;;;;;5085696;28;20152;-63
2022/10/06 02:43:00;;;;;;;7.80;1.50;;;10.90;99.90;;;;;;5077540;28;20089;-62
2022/10/06 02:45:26;;;;;;;5.45;1.33;;;10.90;99.90;;;;;;5082039;28;20119;-62
2022/10/06 02:47:53;;;;;;;9.82;1.75;;;10.80;99.90;;;;;;5080054;28;20067;-62
2022/10/06 02:50:19;;;;;;;8.38;1.40;;;10.90;99.90;;;;;;5084893;28;20093;-62
2022/10/06 02:52:45;;;;;;;8.00;1.55;;;10.90;99.90;;;;;;5087705;28;20043;-62
2022/10/06 02:55:12;;;;;;;9.15;1.80;;;10.80;99.90;;;;;;5080321;28;20032;-62
2022/10/06 02:57:38;;;;;;;9.07;1.92;;;10.80;99.90;;;;;;5083050;28;20648;-62
2022/10/06 03:00:06;;;;;;;11.88;1.40;;;10.80;99.90;;;;;;5086898;28;20032;-62
2022/10/06 03:02:32;;;;;;;7.05;1.77;;;10.80;99.90;;;;;;5082303;28;20428;-61
2022/10/06 03:04:58;;;;;;;10.63;1.60;;;10.80;99.90;;;;;;5086221;28;20138;-62
2022/10/06 03:07:23;;;;;;;12.25;1.73;;;10.80;99.90;;;;;;5063390;28;20142;-62
2022/10/06 03:09:49;;;;;;;7.32;1.45;;;10.80;99.90;;;;;;5086659;28;20523;-62
2022/10/06 03:12:14;;;;;;;7.30;1.95;;;10.80;99.90;;;;;;5081970;28;20416;-62
2022/10/06 03:14:40;;;;;;;12.30;1.60;;;10.80;99.90;;;;;;5084504;28;20047;-62
2022/10/06 03:17:08;;;;;;;10.13;1.65;;;10.80;99.90;;;;;;5083804;28;20036;-63
2022/10/06 03:19:35;;;;;;;7.80;1.30;;;10.70;99.90;;;;;;5086861;28;20046;-62
2022/10/06 03:22:01;;;;;;;8.90;1.58;;;10.70;99.90;;;;;;5082980;28;20127;-63
2022/10/06 03:24:26;;;;;;;9.30;1.33;;;10.80;99.90;;;;;;5087264;28;20037;-62
2022/10/06 03:26:52;;;;;;;9.18;1.33;;;10.80;99.90;;;;;;5081940;28;20043;-62
2022/10/06 03:29:17;;;;;;;9.82;1.50;;;10.80;99.90;;;;;;5084653;28;20162;-62
2022/10/06 03:31:43;;;;;;;10.80;1.75;;;10.80;99.90;;;;;;5087202;28;20036;-62
2022/10/06 03:34:09;;;;;;;8.80;1.38;;;10.80;99.90;;;;;;5086390;28;20027;-62
2022/10/06 03:36:35;;;;;;;5.45;1.00;;;10.70;99.90;;;;;;5067828;28;20100;-62
2022/10/06 03:39:03;;;;;;;9.98;1.73;;;10.80;99.90;;;;;;5085839;28;20047;-62
2022/10/06 03:41:31;;;;;;;7.60;1.45;;;10.80;99.90;;;;;;5087143;28;20158;-62
2022/10/06 03:43:58;;;;;;;10.15;1.27;;;10.80;99.90;;;;;;5065569;28;20043;-63
2022/10/06 03:46:26;;;;;;;5.88;1.27;;;10.70;99.90;;;;;;5088729;28;20123;-63
2022/10/06 03:48:53;;;;;;;9.00;1.55;;;10.70;99.90;;;;;;5084040;28;20178;-61
2022/10/06 03:51:21;;;;;;;7.68;1.48;;;10.70;99.90;;;;;;5085608;28;20776;-62
2022/10/06 03:53:49;;;;;;;9.60;1.40;;;10.70;99.90;;;;;;5088861;28;20481;-63
2022/10/06 03:56:20;;;;;;;6.45;1.48;;;10.60;99.90;;;;;;5080967;28;20090;-62
2022/10/06 03:58:50;;;;;;;9.75;1.45;;;10.60;99.90;;;;;;5082900;28;20044;-62
2022/10/06 04:01:23;;;;;;;7.78;1.48;;;10.60;99.90;;;;;;5077175;28;20040;-62
2022/10/06 04:03:48;;;;;;;8.48;1.50;;;10.60;99.90;;;;;;5086586;28;20562;-62
2022/10/06 04:06:16;;;;;;;8.30;1.52;;;10.60;99.90;;;;;;5062261;28;20151;-62
2022/10/06 04:08:43;;;;;;;9.48;1.33;;;10.60;99.90;;;;;;5083024;28;20294;-63
2022/10/06 04:11:12;;;;;;;7.47;1.52;;;10.50;99.90;;;;;;5081814;28;20032;-62
2022/10/06 04:13:39;;;;;;;11.10;1.65;;;10.50;99.90;;;;;;5080166;28;20047;-62
2022/10/06 04:16:21;;;;;;;11.23;1.70;;;10.50;99.90;;;;;;5083933;28;20036;-63
2022/10/06 04:18:52;;;;;;;9.27;1.60;;;10.40;99.90;;;;;;5086531;28;20055;-62
2022/10/06 04:21:17;;;;;;;9.18;1.83;;;10.40;99.90;;;;;;5078008;28;20051;-62
2022/10/06 04:23:43;;;;;;;9.10;2.40;;;10.40;99.90;;;;;;5064799;28;20032;-62
2022/10/06 04:26:12;;;;;;;10.35;1.60;;;10.40;99.90;;;;;;5084443;28;20123;-63
2022/10/06 04:28:40;;;;;;;8.13;1.95;;;10.30;99.90;;;;;;5081191;28;20119;-62
2022/10/06 04:31:11;;;;;;;8.90;1.50;;;10.30;99.90;;;;;;5084726;28;20032;-63
2022/10/06 04:33:37;;;;;;;10.43;1.38;;;10.30;99.90;;;;;;5064313;28;20082;-62
2022/10/06 04:36:05;;;;;;;7.75;1.60;;;10.30;99.90;;;;;;5082293;28;20421;-62
2022/10/06 04:38:35;;;;;;;7.85;1.88;;;10.30;99.90;;;;;;5081015;28;20147;-62
2022/10/06 04:41:07;;;;;;;9.20;1.70;;;10.20;99.90;;;;;;5079693;28;20040;-62
2022/10/06 04:43:34;;;;;;;12.18;2.17;;;10.30;99.90;;;;;;5061733;28;20044;-62
2022/10/06 04:46:00;;;;;;;7.40;1.60;;;10.30;99.90;;;;;;5080102;28;20399;-62
2022/10/06 04:48:27;;;;;;;10.00;1.38;;;10.30;99.90;;;;;;5065903;28;20375;-62
2022/10/06 04:51:01;;;;;;;8.25;1.83;;;10.30;99.90;;;;;;5054836;28;20471;-63
2022/10/06 04:53:27;;;;;;;8.73;1.42;;;10.30;99.90;;;;;;5060851;28;20101;-62
2022/10/06 04:56:05;;;;;;;9.30;1.95;;;10.30;99.90;;;;;;5083079;28;20356;-63
2022/10/06 04:58:36;;;;;;;15.93;1.77;;;10.30;99.90;;;;;;5082247;28;20084;-62
2022/10/06 05:01:02;;;;;;;10.43;1.60;;;10.30;99.90;;;;;;5081242;28;20065;-62
2022/10/06 05:03:29;;;;;;;6.60;1.42;;;10.40;99.90;;;;;;5083799;28;20032;-62
2022/10/06 05:06:14;;;;;;;9.93;1.67;;;10.40;99.90;;;;;;5076497;28;20118;-63
2022/10/06 05:08:40;;;;;;;9.82;1.50;;;10.30;99.90;;;;;;5084778;28;20098;-63
2022/10/06 05:11:10;;;;;;;9.95;1.55;;;10.30;99.90;;;;;;5077376;28;20050;-63
2022/10/06 05:13:37;;;;;;;;;;;10.30;99.90;;;;;;5079628;28;20147;-62
2022/10/06 05:16:05;;;;;;;9.52;1.75;;;10.30;99.90;;;;;;5079096;28;19987;-62
2022/10/06 05:18:31;;;;;;;8.43;1.48;;;10.30;99.90;;;;;;5083091;28;20069;-63
2022/10/06 05:20:59;;;;;;;15.73;1.92;;;10.30;99.90;;;;;;5084087;28;20047;-63
2022/10/06 05:23:26;;;;;;;10.73;1.70;;;10.30;99.90;;;;;;5079592;28;20490;-62
2022/10/06 05:25:54;;;;;;;9.20;1.50;;;10.20;99.90;;;;;;5079626;28;20379;-62
2022/10/06 05:28:20;;;;;;;9.63;1.67;;;10.30;99.90;;;;;;5080895;28;20036;-62
2022/10/06 05:31:01;;;;;;;6.63;1.55;;;10.20;99.90;;;;;;5085176;28;20038;-63
2022/10/06 05:33:28;;;;;;;;;;;10.20;99.90;;;;;;5078550;28;20144;-63
2022/10/06 05:35:56;;;;;;;10.65;2.20;;;10.20;99.90;;;;;;5084342;28;19916;-62
2022/10/06 05:38:21;;;;;;;13.35;1.80;;;10.20;99.90;;;;;;5064408;28;20046;-62
2022/10/06 05:40:47;;;;;;;10.13;1.67;;;10.20;99.90;;;;;;5081249;28;20040;-63
2022/10/06 05:43:13;;;;;;;5.60;1.50;;;10.30;99.90;;;;;;5075644;28;20566;-62
2022/10/06 05:45:39;;;;;;;8.35;1.60;;;10.20;99.90;;;;;;5076223;28;20333;-62
2022/10/06 05:48:04;;;;;;;6.13;1.35;;;10.30;99.90;;;;;;5080291;28;20108;-63
2022/10/06 05:50:30;;;;;;;10.73;2.25;;;10.20;99.90;;;;;;5063657;28;20162;-63
2022/10/06 05:52:56;;;;;;;8.70;1.38;;;10.20;99.90;;;;;;5077965;28;20051;-63
2022/10/06 05:55:21;;;;;;;8.52;1.48;;;10.20;99.90;;;;;;5080468;28;20063;-63
2022/10/06 05:57:47;;;;;;;8.13;1.75;;;10.10;99.90;;;;;;5079653;28;20078;-62
2022/10/06 06:00:12;;;;;;;8.85;1.35;;;10.10;99.90;;;;;;5064027;28;20044;-62
2022/10/06 06:02:38;;;;;;;6.88;1.20;;;10.10;99.90;;;;;;5074278;28;20047;-63
2022/10/06 06:05:04;;;;;;;6.85;1.48;;;10.10;99.90;;;;;;5082270;28;20562;-63
2022/10/06 06:07:29;;;;;;;11.00;1.80;;;10.00;99.90;;;;;;5081755;28;20047;-63
2022/10/06 06:09:55;;;;;;;10.77;1.63;;;10.00;99.90;;;;;;5079270;28;20523;-62
2022/10/06 06:12:21;;;;;;;15.18;1.73;;;10.00;99.90;;;;;;5076742;28;20063;-63
2022/10/06 06:17:32;;;;;;;10.85;1.50;;;10.10;99.90;;;;;;5080467;28;20419;-62
2022/10/06 06:19:57;;;;;;;9.43;1.50;;;10.10;99.90;;;;;;5081950;28;20028;-63
2022/10/06 06:22:23;;;;;;;11.60;1.77;;;10.10;99.90;;;;;;5075817;28;20031;-63
2022/10/06 06:24:49;;;;;;;12.13;1.70;;;10.20;99.90;;;;;;5086154;28;20032;-62
2022/10/06 06:27:14;;;;;;;10.38;1.35;;;10.20;99.90;;;;;;5044329;28;20058;-62
2022/10/06 06:29:40;;;;;;;11.80;1.83;;;10.20;99.90;;;;;;5076609;28;20036;-62
2022/10/06 06:32:08;;;;;;;9.52;1.60;;;10.30;99.90;;;;;;5063185;28;20032;-63
2022/10/06 06:34:34;;;;;;;8.55;1.60;;;10.30;99.90;;;;;;5057747;28;20048;-62
2022/10/06 06:37:00;;;;;;;9.02;2.28;;;10.40;99.90;;;;;;5076880;28;20093;-62
2022/10/06 06:39:26;;;;;;;12.45;2.20;;;10.40;99.90;;;;;;5060488;28;20054;-63
2022/10/06 06:41:52;;;;;;;11.52;2.33;;;10.50;99.90;;;;;;5061525;28;20516;-62
2022/10/06 06:44:18;;;;;;;11.20;1.92;;;10.50;99.90;;;;;;5080051;28;20062;-63
2022/10/06 06:46:47;;;;;;;11.80;1.80;;;10.60;99.90;;;;;;5078351;28;20036;-62
2022/10/06 06:49:13;;;;;;;10.70;1.67;;;10.70;99.90;;;;;;5065610;28;20036;-62
2022/10/06 06:51:48;;;;;;;12.60;1.77;;;10.70;99.90;;;;;;5081928;28;20043;-63
2022/10/06 06:54:14;;;;;;;7.25;1.63;;;10.80;99.90;;;;;;5070136;28;20040;-62
2022/10/06 06:56:40;;;;;;;10.90;1.80;;;11.10;99.90;;;;;;5084049;28;20052;-63
2022/10/06 06:59:07;;;;;;;10.27;1.60;;;11.30;99.90;;;;;;5072788;28;20448;-62
2022/10/06 07:01:33;;;;;;;14.85;2.00;;;11.60;99.90;;;;;;5085788;28;20050;-62
2022/10/06 07:03:59;;;;;;;11.18;1.80;;;11.80;99.90;;;;;;5082711;28;20134;-62
2022/10/06 07:06:27;;;;;;;5.97;1.75;;;11.90;99.90;;;;;;5080739;28;20357;-63
2022/10/06 07:08:53;;;;;;;8.32;1.48;;;12.10;99.90;;;;;;5076436;28;20051;-64
2022/10/06 07:11:24;;;;;;;11.00;1.60;;;12.30;99.90;;;;;;5084545;28;20032;-63
2022/10/06 07:13:52;;;;;;;9.52;1.88;;;12.50;99.90;;;;;;5084191;28;20488;-63
2022/10/06 07:27:23;;;;;;;10.25;1.90;;;13.40;99.90;;;;;;5054904;28;20044;-62
2022/10/06 07:29:53;;;;;;;7.03;1.63;;;13.70;99.90;;;;;;5082058;28;20042;-63
2022/10/06 07:32:23;;;;;;;10.50;2.05;;;13.90;99.90;;;;;;5085058;28;20043;-62
2022/10/06 07:34:49;;;;;;;8.65;2.03;;;14.10;99.90;;;;;;5083473;28;20086;-62
2022/10/06 07:37:16;;;;;;;8.90;2.03;;;14.20;99.90;;;;;;5082666;28;20036;-63
2022/10/06 07:39:43;;;;;;;9.15;1.75;;;14.40;99.90;;;;;;5087688;28;20039;-62
2022/10/06 07:42:14;;;;;;;8.07;1.42;;;14.40;99.90;;;;;;5075812;28;20467;-63
2022/10/06 07:44:43;;;;;;;8.32;1.60;;;14.40;99.90;;;;;;5088312;28;20134;-63
2022/10/06 07:47:09;;;;;;;8.13;1.40;;;14.40;99.90;;;;;;5083849;28;20029;-62
2022/10/06 07:49:35;;;;;;;5.75;1.58;;;14.40;99.90;;;;;;5086849;28;20042;-63
2022/10/06 07:52:01;;;;;;;11.25;1.98;;;14.40;99.90;;;;;;5062212;28;20809;-63
2022/10/06 07:54:27;;;;;;;6.80;1.70;;;14.30;99.90;;;;;;5072423;28;20090;-63
2022/10/06 07:56:54;;;;;;;5.68;1.48;;;14.30;99.90;;;;;;5071003;28;20090;-63
2022/10/06 07:59:20;;;;;;;8.48;1.50;;;14.10;99.90;;;;;;5085744;28;20024;-63
2022/10/06 08:01:46;;;;;;;11.73;2.05;;;14.10;99.90;;;;;;5085573;28;20028;-63
2022/10/06 08:04:12;;;;;;;9.60;2.13;;;14.10;99.90;;;;;;5078731;28;20077;-62
2022/10/06 08:06:38;;;;;;;8.63;2.08;;;14.00;99.90;;;;;;5080510;28;20064;-64
2022/10/06 08:09:05;;;;;;;11.50;2.20;;;14.00;99.90;;;;;;5062536;28;20047;-64
2022/10/06 08:11:31;;;;;;;10.90;2.35;;;14.00;99.90;;;;;;5079229;28;20052;-64
2022/10/06 08:13:57;;;;;;;10.88;1.60;;;14.00;99.90;;;;;;5084865;28;20031;-62
2022/10/06 08:16:28;;;;;;;11.88;2.03;;;14.00;99.90;;;;;;5083981;28;20048;-63
2022/10/06 08:18:56;;;;;;;5.57;1.55;;;14.10;99.90;;;;;;5066879;28;20124;-63
2022/10/06 08:21:33;;;;;;;9.98;1.60;;;14.10;99.90;;;;;;5084974;28;20353;-64
2022/10/06 08:23:59;;;;;;;11.88;1.60;;;14.20;99.90;;;;;;5085978;28;20044;-63
2022/10/06 08:26:26;;;;;;;11.73;2.38;;;14.30;99.90;;;;;;5081852;28;20042;-64
2022/10/06 08:28:56;;;;;;;9.75;1.98;;;14.30;99.90;;;;;;5076129;28;20108;-63
2022/10/06 08:31:22;;;;;;;8.75;2.08;;;14.30;99.90;;;;;;5070942;28;20036;-62
2022/10/06 08:33:52;;;;;;;8.85;1.60;;;14.40;99.90;;;;;;5085886;28;20036;-63
2022/10/06 08:36:19;;;;;;;10.02;1.80;;;14.40;99.90;;;;;;5079759;28;20437;-63
2022/10/06 08:38:49;;;;;;;5.00;1.02;;;14.50;99.90;;;;;;5087775;28;20040;-63
2022/10/06 08:41:23;;;;;;;8.40;1.40;;;14.50;99.90;;;;;;5086748;28;20040;-63
2022/10/06 08:43:56;;;;;;;10.82;1.70;;;14.50;99.90;;;;;;5078788;28;20070;-64
2022/10/06 08:46:26;;;;;;;8.68;1.67;;;14.60;99.90;;;;;;5084929;28;20048;-64
2022/10/06 08:48:52;;;;;;;;;;;14.70;99.90;;;;;;5087190;28;20043;-63
2022/10/06 08:51:46;;;;;;;9.93;2.08;;;14.70;99.90;;;;;;5085285;28;20375;-63
2022/10/06 08:54:23;;;;;;;13.15;1.90;;;14.80;99.90;;;;;;5068307;28;20089;-62
2022/10/06 08:56:58;;;;;;;7.28;1.63;;;14.80;99.90;;;;;;5056054;28;20121;-63
2022/10/06 08:59:23;;;;;;;10.13;1.85;;;14.80;99.90;;;;;;5089613;28;20083;-63
2022/10/06 09:01:50;;;;;;;9.48;2.03;;;14.90;99.90;;;;;;5052111;28;20159;-63
2022/10/06 09:04:27;;;;;;;7.25;1.67;;;15.00;99.90;;;;;;5086268;28;20079;-64
2022/10/06 09:07:15;;;;;;;8.38;2.05;;;15.00;99.90;;;;;;5067709;28;20044;-63
2022/10/06 09:09:57;;;;;;;14.20;2.42;;;15.00;99.90;;;;;;5088181;28;20075;-64
2022/10/06 09:12:31;;;;;;;8.02;2.13;;;15.10;99.90;;;;;;5065340;28;20040;-63
2022/10/06 09:15:27;;;;;;;11.18;2.10;;;15.10;99.90;;;;;;5070694;28;20113;-64
2022/10/06 09:18:01;;;;;;;8.60;2.13;;;15.00;99.90;;;;;;5083250;28;20036;-63
2022/10/06 09:20:42;;;;;;;9.50;1.98;;;15.20;99.90;;;;;;5068107;28;20039;-63
2022/10/06 09:23:14;;;;;;;8.88;2.60;;;15.10;99.90;;;;;;5088126;28;20043;-63
2022/10/06 09:25:40;;;;;;;10.65;2.40;;;15.20;99.90;;;;;;5085128;28;20058;-65
2022/10/06 09:28:14;;;;;;;10.80;2.22;;;15.20;99.90;;;;;;5083276;28;20040;-65
2022/10/06 09:30:41;;;;;;;10.25;2.15;;;15.20;99.90;;;;;;5050193;28;20135;-64
2022/10/06 09:33:17;;;;;;;9.85;2.00;;;15.20;99.90;;;;;;5083434;28;20502;-63
2022/10/06 09:36:22;;;;;;;10.75;2.50;;;15.30;99.90;;;;;;5061737;28;20075;-64
2022/10/06 09:38:56;;;;;;;6.55;2.40;;;15.50;99.90;;;;;;4960287;28;20148;-63
2022/10/06 09:41:38;;;;;;;10.05;2.28;;;15.40;99.90;;;;;;4983972;28;20061;-63
2022/10/06 09:44:19;;;;;;;16.25;2.70;;;15.50;99.90;;;;;;5033155;28;20108;-63
2022/10/06 09:46:45;;;;;;;9.85;2.20;;;15.50;99.90;;;;;;5081581;28;20516;-63
2022/10/06 09:49:19;;;;;;;10.75;2.17;;;15.50;99.90;;;;;;5087370;28;20185;-63
2022/10/06 09:51:57;;;;;;;8.90;2.28;;;15.60;99.90;;;;;;5084775;28;20081;-64
2022/10/06 09:54:23;;;;;;;8.82;1.67;;;15.50;99.90;;;;;;5071954;28;20032;-63
2022/10/06 09:56:49;;;;;;;10.05;2.30;;;15.50;99.90;;;;;;5083943;28;20056;-63
2022/10/06 09:59:18;;;;;;;9.35;1.92;;;15.40;99.90;;;;;;5088140;28;20040;-63
2022/10/06 10:01:54;;;;;;;5.40;1.65;;;15.30;99.90;;;;;;5090563;28;20040;-65
2022/10/06 10:04:34;;;;;;;9.43;1.67;;;15.30;99.90;;;;;;5085305;28;20100;-63
2022/10/06 10:07:25;;;;;;;8.95;1.60;;;15.20;99.90;;;;;;5086005;28;20086;-64
2022/10/06 10:09:53;;;;;;;11.48;1.90;;;15.30;99.90;;;;;;5084780;28;20115;-63
2022/10/06 10:12:23;;;;;;;9.90;1.77;;;15.30;99.90;;;;;;5086476;28;20147;-63
2022/10/06 10:14:53;;;;;;;11.77;2.08;;;15.40;99.90;;;;;;5084890;28;20036;-63
2022/10/06 10:17:28;;;;;;;5.10;1.37;;;15.50;99.90;;;;;;5088082;28;20036;-64
2022/10/06 10:19:54;;;;;;;9.85;1.60;;;15.70;99.90;;;;;;5062999;28;20036;-63
2022/10/06 10:22:38;;;;;;;8.18;1.95;;;15.70;99.90;;;;;;5089313;28;20112;-64
2022/10/06 10:25:24;;;;;;;7.55;1.63;;;15.90;99.90;;;;;;5087441;28;20051;-64
2022/10/06 10:28:03;;;;;;;7.78;1.60;;;15.90;99.90;;;;;;5064179;28;20544;-66
2022/10/06 10:30:38;;;;;;;8.00;1.33;;;15.90;99.90;;;;;;5090568;28;20590;-63
2022/10/06 10:33:11;;;;;;;10.65;1.77;;;16.10;99.90;;;;;;5086179;28;20147;-64
2022/10/06 10:35:45;;;;;;;5.15;1.52;;;16.30;99.90;;;;;;5057847;28;20036;-64
2022/10/06 10:38:21;;;;;;;9.52;1.55;;;16.50;99.90;;;;;;5069059;28;20384;-63
2022/10/06 10:41:08;;;;;;;8.35;1.65;;;16.70;99.90;;;;;;5079618;28;20036;-63
2022/10/06 10:43:44;;;;;;;7.55;1.42;;;16.80;99.90;;;;;;5080544;28;20051;-64
2022/10/06 10:46:38;;;;;;;6.85;1.00;;;16.80;99.40;;;;;;5083035;28;20044;-64
2022/10/06 10:49:26;;;;;;;4.63;1.00;;;16.80;98.80;;;;;;5056932;28;20086;-63
2022/10/06 10:51:51;;;;;;;8.77;1.17;;;16.80;97.00;;;;;;5080798;28;21026;-63
2022/10/06 10:54:26;;;;;;;5.47;1.17;;;16.70;99.40;;;;;;5084112;28;20079;-65
2022/10/06 10:56:52;;;;;;;4.70;1.35;;;16.60;96.90;;;;;;5086118;28;20067;-63
2022/10/06 10:59:31;;;;;;;6.20;1.40;;;16.70;98.40;;;;;;5085107;28;20093;-64
2022/10/06 11:02:10;;;;;;;8.55;1.30;;;16.60;96.50;;;;;;5080426;28;20631;-64
2022/10/06 11:04:40;;;;;;;6.40;1.25;;;16.60;96.20;;;;;;5089361;28;20051;-64
2022/10/06 11:07:23;;;;;;;6.88;1.23;;;16.60;98.20;;;;;;5090410;28;20044;-63
2022/10/06 11:10:16;;;;;;;5.50;1.13;;;16.60;96.00;;;;;;5085399;28;20036;-63
2022/10/06 11:13:13;;;;;;;6.47;1.23;;;16.60;96.70;;;;;;5066377;28;20072;-63
2022/10/06 11:15:45;;;;;;;5.85;1.35;;;16.70;98.80;;;;;;5091154;28;20046;-64
2022/10/06 11:18:35;;;;;;;7.07;1.08;;;16.80;98.90;;;;;;5087445;28;20043;-64
2022/10/06 11:21:25;;;;;;;5.03;1.08;;;16.70;97.60;;;;;;5067297;28;20154;-64
2022/10/06 11:24:23;;;;;;;7.95;1.50;;;16.70;96.90;;;;;;5074251;28;20115;-66
2022/10/06 11:27:10;;;;;;;4.13;0.98;;;16.50;96.30;;;;;;5046315;28;20085;-63
2022/10/06 11:29:54;;;;;;;7.53;1.17;;;16.50;96.60;;;;;;5089950;28;20055;-63
2022/10/06 11:32:34;;;;;;;8.73;1.40;;;16.30;96.00;;;;;;5083761;28;20142;-65
2022/10/06 11:35:00;;;;;;;5.83;1.07;;;16.30;98.90;;;;;;5086750;28;20540;-63
2022/10/06 11:37:46;;;;;;;6.85;1.50;;;16.10;98.40;;;;;;5066168;28;20052;-63
2022/10/06 11:40:35;;;;;;;5.72;1.10;;;15.90;98.40;;;;;;5087101;28;20082;-63
2022/10/06 11:43:09;;;;;;;6.25;1.27;;;15.90;96.70;;;;;;5081319;28;20043;-64
2022/10/06 11:46:12;;;;;;;3.58;1.38;;;16.00;97.00;;;;;;5063888;28;20048;-64
2022/10/06 11:48:39;;;;;;;5.93;1.27;;;16.10;96.90;;;;;;5068949;28;20169;-64
2022/10/06 11:51:23;;;;;;;3.38;0.90;;;16.10;98.30;;;;;;5050029;28;20048;-64
2022/10/06 11:53:49;;;;;;;5.13;1.30;;;16.30;96.90;;;;;;5081268;28;20040;-63
2022/10/06 11:56:17;;;;;;;6.72;1.60;;;16.50;98.20;;;;;;5087323;28;20067;-64
2022/10/06 11:58:55;;;;;;;5.90;1.20;;;16.60;97.30;;;;;;5085596;28;20387;-63
2022/10/06 12:01:30;;;;;;;4.82;1.13;;;16.60;96.50;;;;;;5080954;28;20492;-64
2022/10/06 12:04:25;;;;;;;3.50;0.90;;;16.70;95.90;;;;;;5068523;28;20131;-63
2022/10/06 12:06:53;;;;;;;5.25;0.98;;;16.80;96.60;;;;;;5070968;28;20066;-63
2022/10/06 12:09:27;;;;;;;6.47;1.08;;;16.80;96.30;;;;;;5089669;28;20036;-64
2022/10/06 12:12:00;;;;;;;4.20;0.70;;;16.80;95.00;;;;;;5077844;28;20040;-63
2022/10/06 12:14:43;;;;;;;3.72;0.82;;;16.70;94.10;;;;;;5068410;28;20078;-63
2022/10/06 12:17:56;;;;;;;4.55;0.90;;;16.80;92.60;;;;;;5068934;28;20080;-65
2022/10/06 12:20:51;;;;;;;4.28;1.00;;;16.80;91.60;;;;;;5085064;28;20051;-63
2022/10/06 12:23:51;;;;;;;5.93;1.17;;;16.80;91.10;;;;;;5083620;28;20054;-63
2022/10/06 12:26:25;;;;;;;4.47;1.10;;;16.70;93.50;;;;;;5080554;28;20134;-64
2022/10/06 12:29:15;;;;;;;3.83;0.85;;;16.80;93.80;;;;;;5084958;28;20051;-64
2022/10/06 12:31:49;;;;;;;5.38;1.40;;;16.80;91.80;;;;;;5047411;28;20052;-64
2022/10/06 12:34:52;;;;;;;4.38;1.00;;;16.80;92.90;;;;;;5084793;28;20116;-63
2022/10/06 12:37:39;;;;;;;4.38;0.85;;;16.80;91.50;;;;;;5068624;28;20116;-63
2022/10/06 12:40:45;;;;;;;4.90;1.17;;;16.80;89.60;;;;;;5087437;28;20491;-63
2022/10/06 12:43:17;;;;;;;2.35;0.80;;;16.80;89.20;;;;;;5064921;28;20036;-64
2022/10/06 12:45:57;;;;;;;4.93;0.60;;;16.90;87.70;;;;;;5064109;28;20058;-63
2022/10/06 12:48:34;;;;;;;;;;;17.00;87.90;;;;;;5077684;28;20206;-64
2022/10/06 12:51:04;;;;;;;5.72;0.90;;;17.00;89.80;;;;;;5085484;28;19990;-64
2022/10/06 12:53:37;;;;;;;5.43;1.02;;;16.90;90.90;;;;;;5086023;28;20043;-64
2022/10/06 12:56:08;;;;;;;4.57;1.00;;;16.80;90.90;;;;;;5083065;28;20848;-64
2022/10/06 12:58:34;;;;;;;5.18;0.77;;;16.80;91.10;;;;;;5079415;28;20048;-64
2022/10/06 13:01:09;;;;;;;3.97;0.95;;;16.80;91.50;;;;;;5063864;28;20036;-64
2022/10/06 13:03:36;;;;;;;7.28;1.00;;;16.70;86.80;;;;;;5083971;28;20633;-63
2022/10/06 13:06:04;;;;;;;4.28;0.98;;;16.70;90.20;;;;;;5082732;28;20119;-63
2022/10/06 13:08:32;;;;;;;5.70;0.95;;;16.60;90.40;;;;;;5078541;28;20089;-63
2022/10/06 13:11:21;;;;;;;4.68;1.02;;;16.60;90.60;;;;;;5066996;28;20120;-63
2022/10/06 13:13:49;;;;;;;3.75;0.80;;;16.50;85.70;;;;;;5071720;28;20044;-63
2022/10/06 13:16:21;;;;;;;5.55;0.90;;;16.40;90.00;;;;;;5084275;28;20063;-63
2022/10/06 13:18:48;;;;;;;2.90;0.80;;;16.30;87.90;;;;;;5083172;28;20047;-64